createdAt,value
2023-04-11T00:00:15.740Z,4.06
2023-04-11T00:02:17.474Z,4.08
2023-04-11T00:06:19.347Z,4.07
2023-04-11T00:12:23.958Z,4.07
2023-04-11T00:18:27.671Z,4.07
2023-04-11T00:22:30.810Z,4.07
2023-04-11T00:28:34.904Z,4.07
2023-04-11T00:32:37.210Z,4.07
2023-04-11T00:34:38.444Z,4.07
2023-04-11T00:38:41.192Z,4.07
2023-04-11T00:42:43.516Z,4.06
2023-04-11T00:44:44.989Z,4.06
2023-04-11T00:48:47.701Z,4.06
2023-04-11T00:54:52.119Z,4.06
2023-04-11T01:00:56.520Z,4.06
2023-04-11T01:04:59.257Z,4.06
2023-04-11T01:11:02.732Z,4.06
2023-04-11T01:15:05.759Z,4.06
2023-04-11T01:17:07.356Z,4.06
2023-04-11T01:21:10.107Z,4.06
2023-04-11T01:25:12.852Z,4.06
2023-04-11T01:27:14.117Z,4.06
2023-04-11T01:31:17.271Z,4.06
2023-04-11T01:35:19.491Z,4.06
2023-04-11T01:37:21.128Z,4.05
2023-04-11T01:41:24.011Z,4.05
2023-04-11T01:43:25.593Z,4.05
2023-04-11T01:47:28.150Z,4.05
2023-04-11T01:53:32.651Z,4.05
2023-04-11T01:59:36.862Z,4.05
2023-04-11T02:09:44.009Z,4.05
2023-04-11T02:13:47.242Z,4.05
2023-04-11T02:17:49.415Z,4.04
2023-04-11T02:19:50.464Z,4.05
2023-04-11T02:23:52.969Z,4.05
2023-04-11T02:25:54.366Z,4.05
2023-04-11T02:29:57.600Z,4.04
2023-04-11T02:36:02.009Z,4.05
2023-04-11T02:42:05.682Z,4.04
2023-04-11T02:46:12.446Z,4.04
2023-04-11T02:52:12.939Z,4.04
2023-04-11T02:56:16.001Z,4.04
2023-04-11T02:58:17.377Z,4.04
2023-04-11T03:02:20.024Z,4.04
2023-04-11T03:06:23.297Z,4.04
2023-04-11T03:08:25.197Z,4.04
2023-04-11T03:12:27.891Z,4.04
2023-04-11T03:18:32.240Z,4.04
2023-04-11T03:24:36.662Z,4.04
2023-04-11T03:28:38.667Z,4.03
2023-04-11T03:34:43.462Z,4.04
2023-04-11T03:38:45.936Z,4.03
2023-04-11T03:40:47.228Z,4.03
2023-04-11T03:44:49.971Z,4.03
2023-04-11T03:48:53.573Z,4.03
2023-04-11T03:50:54.570Z,4.03
2023-04-11T03:54:57.939Z,4.03
2023-04-11T04:01:01.641Z,4.03
2023-04-11T04:07:06.319Z,4.03
2023-04-11T04:11:08.926Z,4.03
2023-04-11T04:13:10.812Z,4.03
2023-04-11T04:17:13.382Z,4.02
2023-04-11T04:21:15.806Z,4.03
2023-04-11T04:23:16.818Z,4.02
2023-04-11T04:27:18.871Z,4.02
2023-04-11T04:33:23.800Z,4.02
2023-04-11T04:39:28.396Z,4.02
2023-04-11T04:43:31.320Z,4.02
2023-04-11T04:49:35.023Z,4.02
2023-04-11T04:53:37.749Z,4.02
2023-04-11T04:55:39.458Z,4.02
2023-04-11T04:59:41.465Z,4.02
2023-04-11T05:03:44.303Z,4.02
2023-04-11T05:05:45.423Z,4.02
2023-04-11T05:09:48.769Z,4.02
2023-04-11T05:15:52.105Z,4.02
2023-04-11T05:19:55.093Z,4.02
2023-04-11T05:21:56.112Z,4.02
2023-04-11T05:25:59.307Z,4.02
2023-04-11T05:32:02.801Z,4.02
2023-04-11T05:38:07.693Z,4.01
2023-04-11T05:42:10.308Z,4.01
2023-04-11T05:42:54.168Z,4.01
2023-04-11T05:46:56.775Z,4.01
2023-04-11T05:48:58.472Z,4.01
2023-04-11T05:53:01.029Z,4.01
2023-04-11T05:57:03.660Z,4.01
2023-04-11T05:59:05.552Z,4.01
2023-04-11T06:03:09.103Z,4.01
2023-04-11T06:09:14.284Z,4
2023-04-11T06:15:18.811Z,4.01
2023-04-11T06:19:21.547Z,4.01
2023-04-11T06:25:25.668Z,4.01
2023-04-11T06:29:28.346Z,4
2023-04-11T06:31:29.552Z,4.01
2023-04-11T06:35:32.624Z,4.01
2023-04-11T06:39:35.639Z,4
2023-04-11T06:41:37.525Z,4
2023-04-11T06:45:41.113Z,4
2023-04-11T06:51:46.123Z,4.01
2023-04-11T06:57:59.294Z,4.02
2023-04-11T07:01:53.574Z,4.01
2023-04-11T07:07:56.934Z,4.02
2023-04-11T07:11:59.582Z,4.02
2023-04-11T07:14:01.231Z,4.02
2023-04-11T07:18:03.766Z,4.03
2023-04-11T07:22:05.958Z,4.03
2023-04-11T07:24:07.197Z,4.04
2023-04-11T07:28:10.496Z,4.04
2023-04-11T07:34:15.730Z,4.08
2023-04-11T07:40:19.341Z,4.04
2023-04-11T07:44:23.303Z,4.04
2023-04-11T07:50:26.481Z,4.05
2023-04-11T07:56:30.759Z,4.04
2023-04-11T08:00:33.671Z,4.04
2023-04-11T08:06:38.737Z,4.04
2023-04-11T08:10:41.926Z,4.04
2023-04-11T08:14:45.367Z,4.03
2023-04-11T08:16:46.775Z,4.05
2023-04-11T08:20:49.603Z,4.05
2023-04-11T08:22:50.517Z,4.05
2023-04-11T08:26:53.073Z,4.05
2023-04-11T08:32:57.094Z,4.07
2023-04-11T08:34:58.838Z,4.09
2023-04-11T08:39:01.114Z,4.1
2023-04-11T08:43:05.022Z,4.1
2023-04-11T08:49:09.363Z,4.08
2023-04-11T08:53:12.814Z,4.12
2023-04-11T08:55:14.395Z,4.12
2023-04-11T08:59:17.672Z,4.12
2023-04-11T09:03:20.486Z,4.13
2023-04-11T09:05:21.452Z,4.14
2023-04-11T09:09:24.376Z,4.14
2023-04-11T09:15:29.793Z,4.14
2023-04-11T09:21:33.316Z,4.16
2023-04-11T09:25:35.966Z,4.14
2023-04-11T09:31:40.719Z,4.17
2023-04-11T09:35:43.056Z,4.17
2023-04-11T09:37:44.363Z,4.17
2023-04-11T09:41:46.198Z,4.18
2023-04-11T09:45:54.276Z,4.19
2023-04-11T09:47:50.200Z,4.18
2023-04-11T09:51:53.396Z,4.19
2023-04-11T09:57:58.063Z,4.19
2023-04-11T10:04:02.032Z,4.19
2023-04-11T10:08:04.408Z,4.19
2023-04-11T10:14:08.271Z,4.19
2023-04-11T10:18:11.513Z,4.19
2023-04-11T10:20:12.421Z,4.2
2023-04-11T10:24:17.329Z,4.2
2023-04-11T10:28:18.127Z,4.2
2023-04-11T10:30:19.378Z,4.19
2023-04-11T10:34:22.694Z,4.19
2023-04-11T10:40:26.509Z,4.2
2023-04-11T10:44:28.751Z,4.2
2023-04-11T10:46:30.303Z,4.2
2023-04-11T10:48:31.409Z,4.2
2023-04-11T10:50:32.472Z,4.2
2023-04-11T10:56:37.284Z,4.2
2023-04-11T11:02:41.827Z,4.2
2023-04-11T11:06:47.631Z,4.19
2023-04-11T11:12:48.268Z,4.19
2023-04-11T11:16:50.891Z,4.19
2023-04-11T11:18:52.070Z,4.18
2023-04-11T11:22:54.618Z,4.18
2023-04-11T11:26:57.945Z,4.18
2023-04-11T11:28:59.142Z,4.18
2023-04-11T11:33:02.423Z,4.18
2023-04-11T11:39:06.427Z,4.18
2023-04-11T11:41:08.450Z,4.18
2023-04-11T11:43:10.819Z,4.18
2023-04-11T11:45:12.155Z,4.18
2023-04-11T11:49:15.287Z,4.17
2023-04-11T11:55:20.021Z,4.18
2023-04-11T11:59:23.339Z,4.17
2023-04-11T12:01:24.639Z,4.18
2023-04-11T12:05:27.325Z,4.17
2023-04-11T12:09:30.283Z,4.17
2023-04-11T12:11:31.529Z,4.17
2023-04-11T12:15:34.793Z,4.17
2023-04-11T12:21:39.611Z,4.17
2023-04-11T12:27:44.681Z,4.17
2023-04-11T12:28:29.215Z,4.16
2023-04-11T12:32:31.407Z,4.17
2023-04-11T12:36:34.303Z,4.17
2023-04-11T12:38:35.846Z,4.17
2023-04-11T12:42:45.677Z,4.16
2023-04-11T12:46:50.668Z,4.16
2023-04-11T12:48:43.229Z,4.16
2023-04-11T12:52:45.905Z,4.16
2023-04-11T12:54:47.043Z,4.16
2023-04-11T13:02:53.497Z,4.16
2023-04-11T13:04:55.371Z,4.16
2023-04-11T13:08:57.598Z,4.16
2023-04-11T13:15:01.786Z,4.16
2023-04-11T13:21:05.469Z,4.16
2023-04-11T13:25:08.361Z,4.16
2023-04-11T13:29:12.091Z,4.16
2023-04-11T13:31:12.724Z,4.16
2023-04-11T13:35:16.131Z,4.16
2023-04-11T13:39:19.117Z,4.16
2023-04-11T13:41:20.923Z,4.16
2023-04-11T13:45:23.452Z,4.19
2023-04-11T13:47:24.783Z,4.19
2023-04-11T13:49:26.049Z,4.19
2023-04-11T13:51:28.529Z,4.19
2023-04-11T13:57:33.159Z,4.19
2023-04-11T14:03:37.823Z,4.2
2023-04-11T14:07:41.734Z,4.2
2023-04-11T14:09:42.717Z,4.2
2023-04-11T14:13:45.261Z,4.2
2023-04-11T14:17:47.927Z,4.19
2023-04-11T14:23:51.341Z,4.2
2023-04-11T14:27:54.303Z,4.2
2023-04-11T14:29:55.615Z,4.19
2023-04-11T14:31:57.369Z,4.2
2023-04-11T14:33:59.222Z,4.2
2023-04-11T14:40:02.637Z,4.2
2023-04-11T14:46:07.044Z,4.2
2023-04-11T14:50:10.718Z,4.21
2023-04-11T14:56:15.217Z,4.19
2023-04-11T15:00:17.759Z,4.19
2023-04-11T15:02:19.277Z,4.19
2023-04-11T15:06:22.117Z,4.19
2023-04-11T15:10:24.617Z,4.19
2023-04-11T15:12:25.533Z,4.18
2023-04-11T15:16:27.799Z,4.18
2023-04-11T15:22:32.254Z,4.18
2023-04-11T15:28:36.683Z,4.18
2023-04-11T15:32:39.279Z,4.18
2023-04-11T15:38:42.688Z,4.18
2023-04-11T15:42:46.198Z,4.18
2023-04-11T15:44:47.176Z,4.17
2023-04-11T15:48:50.116Z,4.17
2023-04-11T15:52:53.086Z,4.17
2023-04-11T15:54:54.459Z,4.18
2023-04-11T15:58:57.666Z,4.17
2023-04-11T16:05:02.379Z,4.17
2023-04-11T16:11:06.503Z,4.17
2023-04-11T16:15:09.029Z,4.17
2023-04-11T16:21:13.009Z,4.17
2023-04-11T16:25:15.465Z,4.16
2023-04-11T16:27:16.454Z,4.17
2023-04-11T16:31:18.542Z,4.17
2023-04-11T16:37:22.625Z,4.17
2023-04-11T16:41:25.635Z,4.17
2023-04-11T16:47:28.896Z,4.17
2023-04-11T16:51:31.406Z,4.17
2023-04-11T16:53:33.212Z,4.16
2023-04-11T16:57:35.746Z,4.16
2023-04-11T17:03:39.746Z,4.16
2023-04-11T17:09:43.966Z,4.16
2023-04-11T17:13:46.722Z,4.16
2023-04-11T17:19:50.703Z,4.16
2023-04-11T17:23:53.744Z,4.16
2023-04-11T17:25:55.059Z,4.16
2023-04-11T17:29:57.838Z,4.16
2023-04-11T17:34:01.039Z,4.16
2023-04-11T17:36:02.029Z,4.15
2023-04-11T17:40:04.823Z,4.15
2023-04-11T17:46:09.782Z,4.16
2023-04-11T17:52:14.011Z,4.15
2023-04-11T17:56:17.361Z,4.15
2023-04-11T18:02:21.100Z,4.15
2023-04-11T18:06:23.642Z,4.15
2023-04-11T18:08:36.444Z,4.15
2023-04-11T18:12:29.408Z,4.15
2023-04-11T18:16:31.233Z,4.14
2023-04-11T18:18:32.518Z,4.15
2023-04-11T18:22:35.072Z,4.15
2023-04-11T18:28:39.451Z,4.14
2023-04-11T18:32:45.640Z,4.14
2023-04-11T18:34:43.819Z,4.14
2023-04-11T18:38:47.239Z,4.14
2023-04-11T18:44:51.355Z,4.14
2023-04-11T18:50:55.164Z,4.14
2023-04-11T18:54:57.951Z,4.14
2023-04-11T19:01:13.829Z,4.14
2023-04-11T19:05:05.577Z,4.14
2023-04-11T19:09:07.835Z,4.14
2023-04-11T19:11:09.707Z,4.14
2023-04-11T19:13:55.191Z,4.13
2023-04-11T19:15:56.424Z,4.14
2023-04-11T19:22:00.971Z,4.13
2023-04-11T19:28:04.644Z,4.13
2023-04-11T19:32:07.604Z,4.13
2023-04-11T19:38:11.585Z,4.13
2023-04-11T19:42:15.024Z,4.13
2023-04-11T19:44:16.260Z,4.13
2023-04-11T19:48:18.934Z,4.13
2023-04-11T19:52:22.289Z,4.13
2023-04-11T19:54:23.264Z,4.12
2023-04-11T19:58:25.930Z,4.13
2023-04-11T20:04:30.674Z,4.12
2023-04-11T20:10:34.678Z,4.12
2023-04-11T20:14:38.525Z,4.12
2023-04-11T20:20:43.883Z,4.12
2023-04-11T20:24:46.469Z,4.11
2023-04-11T20:26:47.856Z,4.11
2023-04-11T20:30:50.717Z,4.12
2023-04-11T20:34:53.622Z,4.12
2023-04-11T20:36:55.034Z,4.12
2023-04-11T20:40:58.510Z,4.12
2023-04-11T20:42:59.946Z,4.12
2023-04-11T20:47:03.035Z,4.12
2023-04-11T20:53:07.314Z,4.12
2023-04-11T20:57:10.270Z,4.12
2023-04-11T21:03:15.177Z,4.12
2023-04-11T21:07:18.880Z,4.11
2023-04-11T21:09:20.086Z,4.11
2023-04-11T21:13:22.766Z,4.11
2023-04-11T21:17:25.838Z,4.11
2023-04-11T21:19:27.014Z,4.11
2023-04-11T21:23:29.739Z,4.11
2023-04-11T21:27:33.143Z,4.11
2023-04-11T21:29:34.352Z,4.11
2023-04-11T21:33:36.588Z,4.11
2023-04-11T21:35:37.910Z,4.11
2023-04-11T21:37:39.270Z,4.11
2023-04-11T21:39:40.722Z,4.11
2023-04-11T21:45:44.909Z,4.1
2023-04-11T21:47:46.347Z,4.1
2023-04-11T21:51:49.853Z,4.1
2023-04-11T21:55:52.757Z,4.1
2023-04-11T22:01:57.434Z,4.1
2023-04-11T22:06:00.639Z,4.1
2023-04-11T22:08:01.703Z,4.1
2023-04-11T22:12:04.933Z,4.1
2023-04-11T22:18:09.976Z,4.1
2023-04-11T22:24:13.793Z,4.1
2023-04-11T22:28:17.014Z,4.1
2023-04-11T22:32:19.684Z,4.1
2023-04-11T22:34:21.622Z,4.09
2023-04-11T22:38:24.448Z,4.1
2023-04-11T22:42:27.138Z,4.1
2023-04-11T22:44:29.033Z,4.09
2023-04-11T22:48:32.103Z,4.08
2023-04-11T22:50:33.163Z,4.09
2023-04-11T22:52:35.107Z,4.09
2023-04-11T22:54:36.743Z,4.09
2023-04-11T23:00:40.801Z,4.09
2023-04-11T23:02:41.937Z,4.09
2023-04-11T23:06:44.877Z,4.09
2023-04-11T23:10:47.677Z,4.09
2023-04-11T23:16:52.670Z,4.08
2023-04-11T23:20:55.766Z,4.08
2023-04-11T23:22:57.541Z,4.08
2023-04-11T23:27:00.023Z,4.08
2023-04-11T23:31:03.179Z,4.08
2023-04-11T23:33:05.023Z,4.08
2023-04-11T23:37:07.909Z,4.08
2023-04-11T23:43:11.816Z,4.08
2023-04-11T23:49:16.502Z,4.08
2023-04-11T23:53:19.801Z,4.08
2023-04-11T23:59:23.638Z,4.08
